sensor_id;sensor_type;location;lat;lon;timestamp;P1;durP1;ratioP1;P2;durP2;ratioP2
50858;SDS011;36826;47.514;19.056;2022-11-20T00:01:39;26.80;;;15.65;;
50858;SDS011;36826;47.514;19.056;2022-11-20T00:04:05;40.80;;;22.50;;
50858;SDS011;36826;47.514;19.056;2022-11-20T00:06:31;58.00;;;31.38;;
50858;SDS011;36826;47.514;19.056;2022-11-20T00:08:58;27.52;;;15.50;;
50858;SDS011;36826;47.514;19.056;2022-11-20T00:11:25;25.83;;;13.77;;
50858;SDS011;36826;47.514;19.056;2022-11-20T00:13:52;25.90;;;14.30;;
50858;SDS011;36826;47.514;19.056;2022-11-20T00:16:20;27.88;;;14.40;;
50858;SDS011;36826;47.514;19.056;2022-11-20T00:21:13;30.10;;;14.13;;
50858;SDS011;36826;47.514;19.056;2022-11-20T00:23:42;25.80;;;13.90;;
50858;SDS011;36826;47.514;19.056;2022-11-20T00:26:09;29.00;;;14.48;;
50858;SDS011;36826;47.514;19.056;2022-11-20T00:28:36;26.77;;;14.18;;
50858;SDS011;36826;47.514;19.056;2022-11-20T00:31:02;24.98;;;14.10;;
50858;SDS011;36826;47.514;19.056;2022-11-20T00:33:30;24.75;;;13.57;;
50858;SDS011;36826;47.514;19.056;2022-11-20T00:36:05;24.38;;;13.25;;
50858;SDS011;36826;47.514;19.056;2022-11-20T00:38:33;27.63;;;14.13;;
50858;SDS011;36826;47.514;19.056;2022-11-20T00:41:00;25.05;;;13.57;;
50858;SDS011;36826;47.514;19.056;2022-11-20T00:43:26;22.48;;;12.25;;
50858;SDS011;36826;47.514;19.056;2022-11-20T00:46:34;25.10;;;13.32;;
50858;SDS011;36826;47.514;19.056;2022-11-20T00:48:43;35.60;;;19.35;;
50858;SDS011;36826;47.514;19.056;2022-11-20T00:51:09;21.90;;;12.05;;
50858;SDS011;36826;47.514;19.056;2022-11-20T00:53:37;27.90;;;15.38;;
50858;SDS011;36826;47.514;19.056;2022-11-20T00:56:03;23.23;;;13.13;;
50858;SDS011;36826;47.514;19.056;2022-11-20T01:01:05;28.00;;;13.25;;
50858;SDS011;36826;47.514;19.056;2022-11-20T01:03:36;24.92;;;13.60;;
50858;SDS011;36826;47.514;19.056;2022-11-20T01:08:35;26.42;;;14.55;;
50858;SDS011;36826;47.514;19.056;2022-11-20T01:11:02;28.90;;;14.07;;
50858;SDS011;36826;47.514;19.056;2022-11-20T01:13:33;28.67;;;15.02;;
50858;SDS011;36826;47.514;19.056;2022-11-20T01:16:15;29.33;;;14.95;;
50858;SDS011;36826;47.514;19.056;2022-11-20T01:18:43;31.88;;;15.30;;
50858;SDS011;36826;47.514;19.056;2022-11-20T01:21:11;32.15;;;15.82;;
50858;SDS011;36826;47.514;19.056;2022-11-20T01:23:39;31.63;;;15.18;;
50858;SDS011;36826;47.514;19.056;2022-11-20T01:26:07;33.10;;;16.10;;
50858;SDS011;36826;47.514;19.056;2022-11-20T01:28:34;25.35;;;11.82;;
50858;SDS011;36826;47.514;19.056;2022-11-20T01:31:00;32.03;;;16.42;;
50858;SDS011;36826;47.514;19.056;2022-11-20T01:33:26;33.92;;;15.88;;
50858;SDS011;36826;47.514;19.056;2022-11-20T01:35:52;33.42;;;16.83;;
50858;SDS011;36826;47.514;19.056;2022-11-20T01:38:18;34.63;;;17.10;;
50858;SDS011;36826;47.514;19.056;2022-11-20T01:40:45;33.70;;;17.17;;
50858;SDS011;36826;47.514;19.056;2022-11-20T01:43:19;34.47;;;17.58;;
50858;SDS011;36826;47.514;19.056;2022-11-20T01:48:42;34.67;;;17.52;;
50858;SDS011;36826;47.514;19.056;2022-11-20T01:51:15;37.20;;;17.45;;
50858;SDS011;36826;47.514;19.056;2022-11-20T01:53:45;36.63;;;17.73;;
50858;SDS011;36826;47.514;19.056;2022-11-20T01:56:12;36.22;;;17.85;;
50858;SDS011;36826;47.514;19.056;2022-11-20T01:58:42;39.47;;;19.08;;
50858;SDS011;36826;47.514;19.056;2022-11-20T02:01:13;40.15;;;18.02;;
50858;SDS011;36826;47.514;19.056;2022-11-20T02:03:39;36.72;;;17.80;;
50858;SDS011;36826;47.514;19.056;2022-11-20T02:08:40;39.67;;;18.98;;
50858;SDS011;36826;47.514;19.056;2022-11-20T02:11:05;38.67;;;17.85;;
50858;SDS011;36826;47.514;19.056;2022-11-20T02:13:31;40.75;;;18.67;;
50858;SDS011;36826;47.514;19.056;2022-11-20T02:16:26;40.90;;;18.48;;
50858;SDS011;36826;47.514;19.056;2022-11-20T02:18:54;38.15;;;19.02;;
50858;SDS011;36826;47.514;19.056;2022-11-20T02:24:34;36.95;;;17.58;;
50858;SDS011;36826;47.514;19.056;2022-11-20T02:29:13;35.55;;;17.55;;
50858;SDS011;36826;47.514;19.056;2022-11-20T02:31:41;34.72;;;17.27;;
50858;SDS011;36826;47.514;19.056;2022-11-20T02:34:08;38.50;;;17.77;;
50858;SDS011;36826;47.514;19.056;2022-11-20T02:36:34;34.30;;;17.33;;
50858;SDS011;36826;47.514;19.056;2022-11-20T02:39:02;34.00;;;17.20;;
50858;SDS011;36826;47.514;19.056;2022-11-20T02:41:32;34.78;;;16.83;;
50858;SDS011;36826;47.514;19.056;2022-11-20T02:43:59;35.47;;;16.73;;
50858;SDS011;36826;47.514;19.056;2022-11-20T02:46:24;37.30;;;16.98;;
50858;SDS011;36826;47.514;19.056;2022-11-20T02:48:49;35.08;;;17.88;;
50858;SDS011;36826;47.514;19.056;2022-11-20T02:51:15;34.47;;;16.92;;
50858;SDS011;36826;47.514;19.056;2022-11-20T02:53:40;34.63;;;17.42;;
50858;SDS011;36826;47.514;19.056;2022-11-20T02:56:06;38.35;;;18.20;;
50858;SDS011;36826;47.514;19.056;2022-11-20T02:58:31;34.30;;;17.73;;
50858;SDS011;36826;47.514;19.056;2022-11-20T03:00:57;36.40;;;18.08;;
50858;SDS011;36826;47.514;19.056;2022-11-20T03:03:22;35.63;;;17.63;;
50858;SDS011;36826;47.514;19.056;2022-11-20T03:05:48;34.17;;;17.65;;
50858;SDS011;36826;47.514;19.056;2022-11-20T03:08:13;33.75;;;17.25;;
50858;SDS011;36826;47.514;19.056;2022-11-20T03:10:38;34.03;;;17.58;;
50858;SDS011;36826;47.514;19.056;2022-11-20T03:13:04;34.53;;;17.75;;
50858;SDS011;36826;47.514;19.056;2022-11-20T03:15:30;36.53;;;17.75;;
50858;SDS011;36826;47.514;19.056;2022-11-20T03:17:55;36.78;;;17.98;;
50858;SDS011;36826;47.514;19.056;2022-11-20T03:20:21;35.40;;;17.90;;
50858;SDS011;36826;47.514;19.056;2022-11-20T03:22:47;32.67;;;16.80;;
50858;SDS011;36826;47.514;19.056;2022-11-20T03:25:12;33.25;;;16.60;;
50858;SDS011;36826;47.514;19.056;2022-11-20T03:27:38;35.92;;;16.73;;
50858;SDS011;36826;47.514;19.056;2022-11-20T03:30:03;32.80;;;17.05;;
50858;SDS011;36826;47.514;19.056;2022-11-20T03:32:30;31.60;;;16.33;;
50858;SDS011;36826;47.514;19.056;2022-11-20T03:34:56;30.75;;;16.15;;
50858;SDS011;36826;47.514;19.056;2022-11-20T03:37:21;31.45;;;16.25;;
50858;SDS011;36826;47.514;19.056;2022-11-20T03:39:47;32.30;;;16.58;;
50858;SDS011;36826;47.514;19.056;2022-11-20T03:42:12;31.00;;;16.13;;
50858;SDS011;36826;47.514;19.056;2022-11-20T03:44:56;30.73;;;16.42;;
50858;SDS011;36826;47.514;19.056;2022-11-20T03:47:21;30.67;;;16.60;;
50858;SDS011;36826;47.514;19.056;2022-11-20T03:49:47;29.85;;;15.90;;
50858;SDS011;36826;47.514;19.056;2022-11-20T03:52:12;31.60;;;16.70;;
50858;SDS011;36826;47.514;19.056;2022-11-20T03:54:37;30.13;;;16.63;;
50858;SDS011;36826;47.514;19.056;2022-11-20T03:57:03;29.88;;;15.98;;
50858;SDS011;36826;47.514;19.056;2022-11-20T03:59:28;29.73;;;15.93;;
50858;SDS011;36826;47.514;19.056;2022-11-20T04:01:53;34.03;;;16.83;;
50858;SDS011;36826;47.514;19.056;2022-11-20T04:04:19;32.15;;;17.10;;
50858;SDS011;36826;47.514;19.056;2022-11-20T04:06:44;29.15;;;16.17;;
50858;SDS011;36826;47.514;19.056;2022-11-20T04:09:10;30.45;;;16.58;;
50858;SDS011;36826;47.514;19.056;2022-11-20T04:11:36;31.45;;;16.63;;
50858;SDS011;36826;47.514;19.056;2022-11-20T04:14:04;32.20;;;16.95;;
50858;SDS011;36826;47.514;19.056;2022-11-20T04:16:33;32.65;;;17.58;;
50858;SDS011;36826;47.514;19.056;2022-11-20T04:19:00;33.17;;;17.33;;
50858;SDS011;36826;47.514;19.056;2022-11-20T04:21:28;35.33;;;17.20;;
50858;SDS011;36826;47.514;19.056;2022-11-20T04:23:54;35.88;;;17.75;;
50858;SDS011;36826;47.514;19.056;2022-11-20T04:26:19;34.42;;;17.35;;
50858;SDS011;36826;47.514;19.056;2022-11-20T04:28:46;32.65;;;17.55;;
50858;SDS011;36826;47.514;19.056;2022-11-20T04:31:12;34.88;;;17.58;;
50858;SDS011;36826;47.514;19.056;2022-11-20T04:33:39;32.00;;;17.83;;
50858;SDS011;36826;47.514;19.056;2022-11-20T04:36:06;32.13;;;17.45;;
50858;SDS011;36826;47.514;19.056;2022-11-20T04:38:35;34.60;;;18.08;;
50858;SDS011;36826;47.514;19.056;2022-11-20T04:41:02;34.45;;;17.52;;
50858;SDS011;36826;47.514;19.056;2022-11-20T04:43:29;35.55;;;18.00;;
50858;SDS011;36826;47.514;19.056;2022-11-20T04:45:56;33.05;;;17.15;;
50858;SDS011;36826;47.514;19.056;2022-11-20T04:48:23;32.97;;;17.20;;
50858;SDS011;36826;47.514;19.056;2022-11-20T04:50:49;29.77;;;16.65;;
50858;SDS011;36826;47.514;19.056;2022-11-20T04:53:15;33.95;;;17.40;;
50858;SDS011;36826;47.514;19.056;2022-11-20T04:55:41;31.70;;;16.85;;
50858;SDS011;36826;47.514;19.056;2022-11-20T04:58:07;33.38;;;17.23;;
50858;SDS011;36826;47.514;19.056;2022-11-20T05:00:33;31.30;;;17.25;;
50858;SDS011;36826;47.514;19.056;2022-11-20T05:02:58;34.20;;;17.75;;
50858;SDS011;36826;47.514;19.056;2022-11-20T05:05:24;33.97;;;17.42;;
50858;SDS011;36826;47.514;19.056;2022-11-20T05:07:49;33.15;;;17.30;;
50858;SDS011;36826;47.514;19.056;2022-11-20T05:10:14;33.00;;;17.25;;
50858;SDS011;36826;47.514;19.056;2022-11-20T05:12:40;34.70;;;17.15;;
50858;SDS011;36826;47.514;19.056;2022-11-20T05:15:06;37.17;;;16.88;;
50858;SDS011;36826;47.514;19.056;2022-11-20T05:17:33;31.80;;;16.58;;
50858;SDS011;36826;47.514;19.056;2022-11-20T05:19:58;33.72;;;16.95;;
50858;SDS011;36826;47.514;19.056;2022-11-20T05:22:23;34.58;;;17.58;;
50858;SDS011;36826;47.514;19.056;2022-11-20T05:24:49;31.77;;;16.70;;
50858;SDS011;36826;47.514;19.056;2022-11-20T05:27:14;29.70;;;16.88;;
50858;SDS011;36826;47.514;19.056;2022-11-20T05:29:40;30.98;;;15.95;;
50858;SDS011;36826;47.514;19.056;2022-11-20T05:32:05;33.72;;;17.65;;
50858;SDS011;36826;47.514;19.056;2022-11-20T05:34:33;34.42;;;17.50;;
50858;SDS011;36826;47.514;19.056;2022-11-20T05:36:59;33.22;;;17.05;;
50858;SDS011;36826;47.514;19.056;2022-11-20T05:39:24;33.50;;;16.77;;
50858;SDS011;36826;47.514;19.056;2022-11-20T05:41:50;32.15;;;16.83;;
50858;SDS011;36826;47.514;19.056;2022-11-20T05:44:35;30.55;;;16.17;;
50858;SDS011;36826;47.514;19.056;2022-11-20T05:47:00;28.60;;;15.65;;
50858;SDS011;36826;47.514;19.056;2022-11-20T05:49:26;32.55;;;17.45;;
50858;SDS011;36826;47.514;19.056;2022-11-20T05:51:51;31.73;;;17.08;;
50858;SDS011;36826;47.514;19.056;2022-11-20T05:54:16;30.58;;;16.48;;
50858;SDS011;36826;47.514;19.056;2022-11-20T05:56:42;30.58;;;17.13;;
50858;SDS011;36826;47.514;19.056;2022-11-20T05:59:07;29.25;;;16.40;;
50858;SDS011;36826;47.514;19.056;2022-11-20T06:01:33;30.80;;;16.95;;
50858;SDS011;36826;47.514;19.056;2022-11-20T06:03:58;30.90;;;15.20;;
50858;SDS011;36826;47.514;19.056;2022-11-20T06:06:23;32.10;;;16.13;;
50858;SDS011;36826;47.514;19.056;2022-11-20T06:08:50;32.33;;;16.92;;
50858;SDS011;36826;47.514;19.056;2022-11-20T06:11:16;28.58;;;15.82;;
50858;SDS011;36826;47.514;19.056;2022-11-20T06:13:42;30.67;;;15.98;;
50858;SDS011;36826;47.514;19.056;2022-11-20T06:16:09;30.48;;;16.83;;
50858;SDS011;36826;47.514;19.056;2022-11-20T06:18:36;29.63;;;15.52;;
50858;SDS011;36826;47.514;19.056;2022-11-20T06:21:06;28.35;;;15.45;;
50858;SDS011;36826;47.514;19.056;2022-11-20T06:23:32;30.00;;;15.60;;
50858;SDS011;36826;47.514;19.056;2022-11-20T06:26:05;27.83;;;14.88;;
50858;SDS011;36826;47.514;19.056;2022-11-20T06:28:32;28.00;;;14.23;;
50858;SDS011;36826;47.514;19.056;2022-11-20T06:30:58;27.52;;;15.15;;
50858;SDS011;36826;47.514;19.056;2022-11-20T06:33:24;26.08;;;14.50;;
50858;SDS011;36826;47.514;19.056;2022-11-20T06:35:50;25.50;;;14.70;;
50858;SDS011;36826;47.514;19.056;2022-11-20T06:38:16;26.00;;;14.85;;
50858;SDS011;36826;47.514;19.056;2022-11-20T06:40:42;25.80;;;14.43;;
50858;SDS011;36826;47.514;19.056;2022-11-20T06:43:08;30.25;;;15.52;;
50858;SDS011;36826;47.514;19.056;2022-11-20T06:45:36;27.92;;;14.95;;
50858;SDS011;36826;47.514;19.056;2022-11-20T06:48:02;24.00;;;13.82;;
50858;SDS011;36826;47.514;19.056;2022-11-20T06:50:28;28.08;;;14.75;;
50858;SDS011;36826;47.514;19.056;2022-11-20T06:52:54;25.02;;;14.15;;
50858;SDS011;36826;47.514;19.056;2022-11-20T06:55:19;27.50;;;14.95;;
50858;SDS011;36826;47.514;19.056;2022-11-20T06:57:45;27.08;;;14.50;;
50858;SDS011;36826;47.514;19.056;2022-11-20T07:00:10;27.48;;;15.15;;
50858;SDS011;36826;47.514;19.056;2022-11-20T07:02:36;26.05;;;14.85;;
50858;SDS011;36826;47.514;19.056;2022-11-20T07:05:01;27.75;;;14.77;;
50858;SDS011;36826;47.514;19.056;2022-11-20T07:07:27;27.02;;;14.35;;
50858;SDS011;36826;47.514;19.056;2022-11-20T07:09:52;25.20;;;13.93;;
50858;SDS011;36826;47.514;19.056;2022-11-20T07:12:18;27.55;;;14.70;;
50858;SDS011;36826;47.514;19.056;2022-11-20T07:14:43;27.27;;;14.52;;
50858;SDS011;36826;47.514;19.056;2022-11-20T07:17:08;25.33;;;14.02;;
50858;SDS011;36826;47.514;19.056;2022-11-20T07:19:34;25.63;;;14.15;;
50858;SDS011;36826;47.514;19.056;2022-11-20T07:21:59;25.90;;;14.25;;
50858;SDS011;36826;47.514;19.056;2022-11-20T07:24:25;24.13;;;13.82;;
50858;SDS011;36826;47.514;19.056;2022-11-20T07:26:50;25.17;;;14.18;;
50858;SDS011;36826;47.514;19.056;2022-11-20T07:29:16;25.85;;;14.20;;
50858;SDS011;36826;47.514;19.056;2022-11-20T07:31:42;25.25;;;13.80;;
50858;SDS011;36826;47.514;19.056;2022-11-20T07:34:08;25.77;;;14.48;;
50858;SDS011;36826;47.514;19.056;2022-11-20T07:36:34;26.13;;;15.43;;
50858;SDS011;36826;47.514;19.056;2022-11-20T07:38:59;24.98;;;14.07;;
50858;SDS011;36826;47.514;19.056;2022-11-20T07:41:24;24.75;;;14.85;;
50858;SDS011;36826;47.514;19.056;2022-11-20T07:43:50;28.83;;;15.35;;
50858;SDS011;36826;47.514;19.056;2022-11-20T07:46:15;27.13;;;15.00;;
50858;SDS011;36826;47.514;19.056;2022-11-20T07:48:41;29.60;;;15.90;;
50858;SDS011;36826;47.514;19.056;2022-11-20T07:51:06;29.13;;;15.23;;
50858;SDS011;36826;47.514;19.056;2022-11-20T07:53:31;28.40;;;14.65;;
50858;SDS011;36826;47.514;19.056;2022-11-20T07:56:00;26.77;;;15.10;;
50858;SDS011;36826;47.514;19.056;2022-11-20T07:58:28;26.25;;;14.43;;
50858;SDS011;36826;47.514;19.056;2022-11-20T08:00:54;23.45;;;13.45;;
50858;SDS011;36826;47.514;19.056;2022-11-20T08:03:20;25.35;;;14.85;;
50858;SDS011;36826;47.514;19.056;2022-11-20T08:05:45;25.88;;;14.82;;
50858;SDS011;36826;47.514;19.056;2022-11-20T08:08:11;27.27;;;15.02;;
50858;SDS011;36826;47.514;19.056;2022-11-20T08:10:36;26.38;;;13.65;;
50858;SDS011;36826;47.514;19.056;2022-11-20T08:13:02;27.52;;;15.65;;
50858;SDS011;36826;47.514;19.056;2022-11-20T08:15:49;26.17;;;14.40;;
50858;SDS011;36826;47.514;19.056;2022-11-20T08:18:16;25.88;;;14.98;;
50858;SDS011;36826;47.514;19.056;2022-11-20T08:20:42;25.35;;;13.88;;
50858;SDS011;36826;47.514;19.056;2022-11-20T08:23:08;25.60;;;13.98;;
50858;SDS011;36826;47.514;19.056;2022-11-20T08:25:34;25.42;;;14.60;;
50858;SDS011;36826;47.514;19.056;2022-11-20T08:28:01;25.17;;;14.63;;
50858;SDS011;36826;47.514;19.056;2022-11-20T08:30:28;26.77;;;15.07;;
50858;SDS011;36826;47.514;19.056;2022-11-20T08:32:53;24.25;;;14.38;;
50858;SDS011;36826;47.514;19.056;2022-11-20T08:35:19;25.00;;;14.80;;
50858;SDS011;36826;47.514;19.056;2022-11-20T08:37:49;24.75;;;14.10;;
50858;SDS011;36826;47.514;19.056;2022-11-20T08:42:46;22.70;;;13.65;;
50858;SDS011;36826;47.514;19.056;2022-11-20T08:45:12;25.10;;;14.40;;
50858;SDS011;36826;47.514;19.056;2022-11-20T08:47:38;24.92;;;14.63;;
50858;SDS011;36826;47.514;19.056;2022-11-20T08:50:03;26.20;;;15.25;;
50858;SDS011;36826;47.514;19.056;2022-11-20T08:52:29;26.75;;;15.50;;
50858;SDS011;36826;47.514;19.056;2022-11-20T08:54:54;23.02;;;14.77;;
50858;SDS011;36826;47.514;19.056;2022-11-20T08:57:20;22.20;;;13.77;;
50858;SDS011;36826;47.514;19.056;2022-11-20T08:59:45;25.67;;;14.43;;
50858;SDS011;36826;47.514;19.056;2022-11-20T09:02:10;25.33;;;14.13;;
50858;SDS011;36826;47.514;19.056;2022-11-20T09:04:37;26.10;;;15.80;;
50858;SDS011;36826;47.514;19.056;2022-11-20T09:07:02;25.90;;;15.18;;
50858;SDS011;36826;47.514;19.056;2022-11-20T09:09:28;26.02;;;14.70;;
50858;SDS011;36826;47.514;19.056;2022-11-20T09:11:53;25.08;;;14.93;;
50858;SDS011;36826;47.514;19.056;2022-11-20T09:14:19;25.45;;;15.32;;
50858;SDS011;36826;47.514;19.056;2022-11-20T09:16:45;24.42;;;14.70;;
50858;SDS011;36826;47.514;19.056;2022-11-20T09:19:11;24.50;;;14.93;;
50858;SDS011;36826;47.514;19.056;2022-11-20T09:21:36;24.52;;;14.55;;
50858;SDS011;36826;47.514;19.056;2022-11-20T09:24:02;26.42;;;15.52;;
50858;SDS011;36826;47.514;19.056;2022-11-20T09:26:27;25.30;;;15.48;;
50858;SDS011;36826;47.514;19.056;2022-11-20T09:28:53;26.70;;;15.73;;
50858;SDS011;36826;47.514;19.056;2022-11-20T09:31:24;30.25;;;16.60;;
50858;SDS011;36826;47.514;19.056;2022-11-20T09:33:50;27.02;;;15.57;;
50858;SDS011;36826;47.514;19.056;2022-11-20T09:36:16;27.10;;;16.15;;
50858;SDS011;36826;47.514;19.056;2022-11-20T09:38:43;28.73;;;16.05;;
50858;SDS011;36826;47.514;19.056;2022-11-20T09:41:17;27.60;;;16.42;;
50858;SDS011;36826;47.514;19.056;2022-11-20T09:44:07;27.63;;;16.10;;
50858;SDS011;36826;47.514;19.056;2022-11-20T09:46:52;29.30;;;17.30;;
50858;SDS011;36826;47.514;19.056;2022-11-20T09:49:50;26.52;;;16.13;;
50858;SDS011;36826;47.514;19.056;2022-11-20T09:52:25;28.15;;;16.50;;
50858;SDS011;36826;47.514;19.056;2022-11-20T09:55:04;30.20;;;16.42;;
50858;SDS011;36826;47.514;19.056;2022-11-20T09:57:36;27.25;;;15.68;;
50858;SDS011;36826;47.514;19.056;2022-11-20T10:00:05;27.67;;;16.50;;
50858;SDS011;36826;47.514;19.056;2022-11-20T10:02:46;26.40;;;16.73;;
50858;SDS011;36826;47.514;19.056;2022-11-20T10:05:25;28.90;;;17.05;;
50858;SDS011;36826;47.514;19.056;2022-11-20T10:18:43;27.17;;;16.48;;
50858;SDS011;36826;47.514;19.056;2022-11-20T10:21:26;28.80;;;16.88;;
50858;SDS011;36826;47.514;19.056;2022-11-20T10:24:15;28.30;;;17.02;;
50858;SDS011;36826;47.514;19.056;2022-11-20T10:26:56;27.60;;;17.17;;
50858;SDS011;36826;47.514;19.056;2022-11-20T10:29:34;25.52;;;16.98;;
50858;SDS011;36826;47.514;19.056;2022-11-20T10:32:07;28.88;;;18.27;;
50858;SDS011;36826;47.514;19.056;2022-11-20T10:37:17;29.38;;;17.98;;
50858;SDS011;36826;47.514;19.056;2022-11-20T10:39:54;27.27;;;17.15;;
50858;SDS011;36826;47.514;19.056;2022-11-20T10:45:44;25.42;;;15.85;;
50858;SDS011;36826;47.514;19.056;2022-11-20T10:47:49;26.80;;;16.08;;
50858;SDS011;36826;47.514;19.056;2022-11-20T10:50:18;27.40;;;15.35;;
50858;SDS011;36826;47.514;19.056;2022-11-20T10:52:52;23.58;;;14.77;;
50858;SDS011;36826;47.514;19.056;2022-11-20T11:01:19;24.93;;;14.50;;
50858;SDS011;36826;47.514;19.056;2022-11-20T11:03:50;24.08;;;14.98;;
50858;SDS011;36826;47.514;19.056;2022-11-20T11:06:20;25.77;;;15.43;;
50858;SDS011;36826;47.514;19.056;2022-11-20T11:08:53;23.17;;;14.75;;
50858;SDS011;36826;47.514;19.056;2022-11-20T11:13:49;23.60;;;14.25;;
50858;SDS011;36826;47.514;19.056;2022-11-20T11:16:25;24.42;;;14.98;;
50858;SDS011;36826;47.514;19.056;2022-11-20T11:18:51;25.02;;;14.90;;
50858;SDS011;36826;47.514;19.056;2022-11-20T11:21:28;23.73;;;15.00;;
50858;SDS011;36826;47.514;19.056;2022-11-20T11:23:58;22.88;;;14.48;;
50858;SDS011;36826;47.514;19.056;2022-11-20T11:26:25;21.23;;;14.25;;
50858;SDS011;36826;47.514;19.056;2022-11-20T11:31:27;25.27;;;15.25;;
50858;SDS011;36826;47.514;19.056;2022-11-20T11:34:04;22.42;;;15.07;;
50858;SDS011;36826;47.514;19.056;2022-11-20T11:36:30;25.60;;;15.63;;
50858;SDS011;36826;47.514;19.056;2022-11-20T11:38:58;29.95;;;17.30;;
50858;SDS011;36826;47.514;19.056;2022-11-20T11:41:24;26.30;;;15.18;;
50858;SDS011;36826;47.514;19.056;2022-11-20T11:43:54;22.88;;;14.15;;
50858;SDS011;36826;47.514;19.056;2022-11-20T11:46:59;23.17;;;14.45;;
50858;SDS011;36826;47.514;19.056;2022-11-20T11:49:25;21.55;;;13.40;;
50858;SDS011;36826;47.514;19.056;2022-11-20T11:52:05;22.52;;;13.90;;
50858;SDS011;36826;47.514;19.056;2022-11-20T11:57:03;23.13;;;14.40;;
50858;SDS011;36826;47.514;19.056;2022-11-20T11:59:41;20.58;;;13.48;;
50858;SDS011;36826;47.514;19.056;2022-11-20T12:05:08;19.70;;;12.63;;
50858;SDS011;36826;47.514;19.056;2022-11-20T12:07:42;21.23;;;13.70;;
50858;SDS011;36826;47.514;19.056;2022-11-20T12:10:16;20.65;;;13.00;;
50858;SDS011;36826;47.514;19.056;2022-11-20T12:12:46;22.08;;;14.25;;
50858;SDS011;36826;47.514;19.056;2022-11-20T12:15:20;24.88;;;15.45;;
50858;SDS011;36826;47.514;19.056;2022-11-20T12:17:51;27.13;;;16.13;;
50858;SDS011;36826;47.514;19.056;2022-11-20T12:20:17;24.85;;;15.88;;
50858;SDS011;36826;47.514;19.056;2022-11-20T12:25:34;27.42;;;16.05;;
50858;SDS011;36826;47.514;19.056;2022-11-20T12:30:47;26.10;;;16.65;;
50858;SDS011;36826;47.514;19.056;2022-11-20T12:36:27;23.52;;;15.40;;
50858;SDS011;36826;47.514;19.056;2022-11-20T12:39:07;28.88;;;17.23;;
50858;SDS011;36826;47.514;19.056;2022-11-20T12:53:03;25.38;;;15.80;;
50858;SDS011;36826;47.514;19.056;2022-11-20T12:55:46;26.33;;;16.33;;
50858;SDS011;36826;47.514;19.056;2022-11-20T12:58:40;27.45;;;15.90;;
50858;SDS011;36826;47.514;19.056;2022-11-20T13:01:32;53.05;;;31.80;;
50858;SDS011;36826;47.514;19.056;2022-11-20T13:04:08;23.50;;;15.48;;
50858;SDS011;36826;47.514;19.056;2022-11-20T13:06:51;22.58;;;14.25;;
50858;SDS011;36826;47.514;19.056;2022-11-20T13:09:18;24.35;;;14.48;;
50858;SDS011;36826;47.514;19.056;2022-11-20T13:14:47;23.98;;;15.10;;
50858;SDS011;36826;47.514;19.056;2022-11-20T13:19:54;24.90;;;15.85;;
50858;SDS011;36826;47.514;19.056;2022-11-20T13:22:42;24.55;;;14.82;;
50858;SDS011;36826;47.514;19.056;2022-11-20T13:25:22;25.10;;;15.52;;
50858;SDS011;36826;47.514;19.056;2022-11-20T13:27:49;30.40;;;18.60;;
50858;SDS011;36826;47.514;19.056;2022-11-20T13:30:16;25.25;;;15.70;;
50858;SDS011;36826;47.514;19.056;2022-11-20T13:35:32;25.67;;;15.95;;
50858;SDS011;36826;47.514;19.056;2022-11-20T13:38:09;27.05;;;15.50;;
50858;SDS011;36826;47.514;19.056;2022-11-20T13:41:00;27.60;;;16.95;;
50858;SDS011;36826;47.514;19.056;2022-11-20T13:43:48;26.20;;;16.42;;
50858;SDS011;36826;47.514;19.056;2022-11-20T13:46:14;27.17;;;16.30;;
50858;SDS011;36826;47.514;19.056;2022-11-20T13:48:41;26.90;;;16.83;;
50858;SDS011;36826;47.514;19.056;2022-11-20T13:56:24;27.70;;;16.85;;
50858;SDS011;36826;47.514;19.056;2022-11-20T13:59:02;29.98;;;18.25;;
50858;SDS011;36826;47.514;19.056;2022-11-20T14:01:35;30.38;;;18.35;;
50858;SDS011;36826;47.514;19.056;2022-11-20T14:04:06;31.15;;;18.33;;
50858;SDS011;36826;47.514;19.056;2022-11-20T14:06:52;27.08;;;17.02;;
50858;SDS011;36826;47.514;19.056;2022-11-20T14:09:25;29.77;;;17.10;;
50858;SDS011;36826;47.514;19.056;2022-11-20T14:11:52;31.63;;;17.88;;
50858;SDS011;36826;47.514;19.056;2022-11-20T14:14:19;28.88;;;16.48;;
50858;SDS011;36826;47.514;19.056;2022-11-20T14:16:46;28.88;;;16.85;;
50858;SDS011;36826;47.514;19.056;2022-11-20T14:22:06;28.50;;;16.88;;
50858;SDS011;36826;47.514;19.056;2022-11-20T14:24:33;27.10;;;15.90;;
50858;SDS011;36826;47.514;19.056;2022-11-20T14:27:11;28.20;;;16.48;;
50858;SDS011;36826;47.514;19.056;2022-11-20T14:29:45;30.55;;;18.42;;
50858;SDS011;36826;47.514;19.056;2022-11-20T14:34:44;31.45;;;17.25;;
50858;SDS011;36826;47.514;19.056;2022-11-20T14:37:13;28.90;;;16.83;;
50858;SDS011;36826;47.514;19.056;2022-11-20T14:39:52;28.13;;;16.98;;
50858;SDS011;36826;47.514;19.056;2022-11-20T14:42:23;29.77;;;16.67;;
50858;SDS011;36826;47.514;19.056;2022-11-20T14:44:50;31.42;;;18.35;;
50858;SDS011;36826;47.514;19.056;2022-11-20T14:47:28;27.58;;;16.95;;
50858;SDS011;36826;47.514;19.056;2022-11-20T14:49:56;28.88;;;16.85;;
50858;SDS011;36826;47.514;19.056;2022-11-20T14:52:24;29.13;;;17.95;;
50858;SDS011;36826;47.514;19.056;2022-11-20T14:57:34;28.85;;;16.55;;
50858;SDS011;36826;47.514;19.056;2022-11-20T15:02:29;28.45;;;17.60;;
50858;SDS011;36826;47.514;19.056;2022-11-20T15:04:59;28.88;;;17.33;;
50858;SDS011;36826;47.514;19.056;2022-11-20T15:07:35;30.73;;;18.48;;
50858;SDS011;36826;47.514;19.056;2022-11-20T15:12:37;31.52;;;19.95;;
50858;SDS011;36826;47.514;19.056;2022-11-20T15:15:05;30.02;;;17.48;;
50858;SDS011;36826;47.514;19.056;2022-11-20T15:17:40;29.77;;;17.23;;
50858;SDS011;36826;47.514;19.056;2022-11-20T15:20:09;27.80;;;16.50;;
50858;SDS011;36826;47.514;19.056;2022-11-20T15:22:38;30.55;;;17.58;;
50858;SDS011;36826;47.514;19.056;2022-11-20T15:25:10;28.13;;;16.48;;
50858;SDS011;36826;47.514;19.056;2022-11-20T15:27:37;29.67;;;16.58;;
50858;SDS011;36826;47.514;19.056;2022-11-20T15:30:07;31.48;;;16.77;;
50858;SDS011;36826;47.514;19.056;2022-11-20T15:35:07;28.70;;;16.23;;
50858;SDS011;36826;47.514;19.056;2022-11-20T15:37:33;29.65;;;16.52;;
50858;SDS011;36826;47.514;19.056;2022-11-20T15:39:58;29.88;;;16.90;;
50858;SDS011;36826;47.514;19.056;2022-11-20T15:42:24;29.38;;;17.00;;
50858;SDS011;36826;47.514;19.056;2022-11-20T15:44:49;29.73;;;17.88;;
50858;SDS011;36826;47.514;19.056;2022-11-20T15:47:14;29.50;;;16.73;;
50858;SDS011;36826;47.514;19.056;2022-11-20T15:49:45;27.50;;;16.42;;
50858;SDS011;36826;47.514;19.056;2022-11-20T15:52:10;30.92;;;17.58;;
50858;SDS011;36826;47.514;19.056;2022-11-20T15:54:36;28.38;;;16.95;;
50858;SDS011;36826;47.514;19.056;2022-11-20T15:57:01;30.60;;;17.50;;
50858;SDS011;36826;47.514;19.056;2022-11-20T15:59:27;27.48;;;16.23;;
50858;SDS011;36826;47.514;19.056;2022-11-20T16:01:53;31.60;;;17.55;;